Time;durP1;ratioP1;P1;durP2;ratioP2;P2;SDS_P1;SDS_P2;PMS_P1;PMS_P2;Temp;Humidity;BMP_temperature;BMP_pressure;BME280_temperature;BME280_humidity;BME280_pressure;Samples;Min_cycle;Max_cycle;Signal;HPM_P1;HPM_P2
2022/08/17 00:00:16;;;;;;;4.38;3.97;;;19.40;98.10;;;;;;5100130;28;20093;-80
2022/08/17 00:03:09;;;;;;;4.50;4.07;;;19.30;98.40;;;;;;5102922;28;20012;-80
2022/08/17 00:05:42;;;;;;;4.25;3.95;;;19.30;98.60;;;;;;5125675;28;20019;-80
2022/08/17 00:08:08;;;;;;;5.03;4.53;;;19.30;99.00;;;;;;5116112;28;20016;-80
2022/08/17 00:10:34;;;;;;;6.53;3.97;;;19.20;99.20;;;;;;5124684;28;20031;-80
2022/08/17 00:13:06;;;;;;;4.72;4.30;;;19.20;99.50;;;;;;5118972;28;20046;-81
2022/08/17 00:15:31;;;;;;;6.75;4.30;;;19.10;99.80;;;;;;5121484;28;20020;-81
2022/08/17 00:17:57;;;;;;;6.70;4.80;;;19.10;99.90;;;;;;5116733;28;20055;-80
2022/08/17 00:20:22;;;;;;;4.57;4.18;;;19.10;99.90;;;;;;5125152;28;20032;-80
2022/08/17 00:22:48;;;;;;;4.65;4.25;;;19.00;99.90;;;;;;5109718;28;20028;-81
2022/08/17 00:25:18;;;;;;;4.82;4.35;;;19.00;99.90;;;;;;5096310;28;20077;-80
2022/08/17 00:27:44;;;;;;;5.22;4.75;;;19.00;99.90;;;;;;5098804;28;20032;-81
2022/08/17 00:30:11;;;;;;;5.70;5.15;;;19.00;99.90;;;;;;5108373;28;20054;-80
2022/08/17 00:32:45;;;;;;;8.18;5.38;;;18.90;99.90;;;;;;5109475;28;20072;-80
2022/08/17 00:35:14;;;;;;;8.48;4.90;;;18.90;99.90;;;;;;5092149;28;20111;-80
2022/08/17 00:37:41;;;;;;;4.78;4.25;;;18.90;99.90;;;;;;5113747;28;20088;-81
2022/08/17 00:40:10;;;;;;;5.25;4.57;;;18.90;99.90;;;;;;5094339;28;20503;-80
2022/08/17 00:42:36;;;;;;;5.93;4.70;;;18.90;99.90;;;;;;5092463;28;20023;-79
2022/08/17 00:45:07;;;;;;;6.07;4.30;;;19.00;99.90;;;;;;5094340;28;20028;-80
2022/08/17 00:47:33;;;;;;;6.80;4.90;;;19.00;99.90;;;;;;5095805;28;20028;-79
2022/08/17 00:49:59;;;;;;;5.72;4.28;;;19.00;99.90;;;;;;5094891;28;20032;-79
2022/08/17 00:52:31;;;;;;;5.30;4.80;;;18.90;99.90;;;;;;5106334;28;20032;-79
2022/08/17 00:54:58;;;;;;;7.32;4.43;;;18.90;99.90;;;;;;5097202;28;20020;-79
2022/08/17 00:57:28;;;;;;;4.95;4.10;;;18.90;99.90;;;;;;5101368;28;20051;-79
2022/08/17 01:00:04;;;;;;;5.32;4.47;;;18.80;99.90;;;;;;5108688;28;20046;-80
2022/08/17 01:02:36;;;;;;;5.53;4.78;;;18.80;99.90;;;;;;5093538;28;20191;-80
2022/08/17 01:05:03;;;;;;;6.20;4.72;;;18.90;99.90;;;;;;5095606;28;20024;-79
2022/08/17 01:07:28;;;;;;;5.68;4.57;;;18.80;99.90;;;;;;5101456;28;20159;-79
2022/08/17 01:09:54;;;;;;;6.28;4.60;;;18.90;99.90;;;;;;5097521;28;20489;-79
2022/08/17 01:12:20;;;;;;;5.28;4.63;;;18.80;99.90;;;;;;5105260;28;20345;-79
2022/08/17 01:14:46;;;;;;;4.97;4.47;;;18.80;99.90;;;;;;5102826;28;20020;-79
2022/08/17 01:17:11;;;;;;;4.88;4.32;;;18.70;99.90;;;;;;5105477;28;20020;-79
2022/08/17 01:19:40;;;;;;;8.23;4.72;;;18.60;99.90;;;;;;5095609;28;20032;-79
2022/08/17 01:22:06;;;;;;;5.38;4.63;;;18.60;99.90;;;;;;5103959;28;20487;-84
2022/08/17 01:24:33;;;;;;;5.60;5.00;;;18.60;99.90;;;;;;5111215;28;20047;-80
2022/08/17 01:26:58;;;;;;;5.85;4.30;;;18.50;99.90;;;;;;5094934;28;20024;-79
2022/08/17 01:29:25;;;;;;;7.13;5.13;;;18.50;99.90;;;;;;5095588;28;20043;-79
2022/08/17 01:31:57;;;;;;;5.00;4.50;;;18.50;99.90;;;;;;5100237;28;20028;-80
2022/08/17 01:34:23;;;;;;;5.40;4.70;;;18.40;99.90;;;;;;5095002;28;20032;-80
2022/08/17 01:36:50;;;;;;;4.45;4.05;;;18.40;99.90;;;;;;5095081;28;20016;-79
2022/08/17 01:39:30;;;;;;;5.57;4.20;;;18.40;99.90;;;;;;5095534;28;20073;-79
2022/08/17 01:42:22;;;;;;;6.18;4.95;;;18.30;99.90;;;;;;5094041;28;20397;-79
2022/08/17 01:44:54;;;;;;;6.13;5.25;;;18.30;99.90;;;;;;5096836;28;20027;-80
2022/08/17 01:47:19;;;;;;;6.28;4.78;;;18.30;99.90;;;;;;5095813;28;20020;-79
2022/08/17 01:49:45;;;;;;;6.07;4.55;;;18.30;99.90;;;;;;5101122;28;20139;-79
2022/08/17 01:52:11;;;;;;;6.75;4.32;;;18.30;99.90;;;;;;5096736;28;20023;-79
2022/08/17 01:54:39;;;;;;;5.30;4.80;;;18.20;99.90;;;;;;5102187;28;20028;-79
2022/08/17 01:57:05;;;;;;;7.20;4.78;;;18.20;99.90;;;;;;5093833;28;20043;-79
2022/08/17 01:59:31;;;;;;;6.28;4.45;;;18.20;99.90;;;;;;5105576;28;20543;-79
2022/08/17 02:01:57;;;;;;;5.05;4.45;;;18.20;99.90;;;;;;5124118;27;20157;-79
2022/08/17 02:04:23;;;;;;;5.28;4.57;;;18.10;99.90;;;;;;5100527;28;23119;-80
2022/08/17 02:06:49;;;;;;;5.28;4.57;;;18.10;99.90;;;;;;5096494;28;20070;-80
2022/08/17 02:09:15;;;;;;;6.57;4.28;;;18.00;99.90;;;;;;5095245;28;20035;-80
2022/08/17 02:11:40;;;;;;;4.93;4.32;;;18.00;99.90;;;;;;5094383;28;20054;-81
2022/08/17 02:14:08;;;;;;;5.38;4.22;;;18.00;99.90;;;;;;5093406;28;20063;-79
2022/08/17 02:16:36;;;;;;;5.03;4.47;;;18.00;99.90;;;;;;5093502;28;20085;-80
2022/08/17 02:19:03;;;;;;;5.70;5.05;;;18.00;99.90;;;;;;5093097;28;20036;-79
2022/08/17 02:21:30;;;;;;;6.22;4.43;;;17.90;99.90;;;;;;5098694;28;20479;-79
2022/08/17 02:23:55;;;;;;;7.22;4.82;;;18.00;99.90;;;;;;5100374;28;20461;-79
2022/08/17 02:26:21;;;;;;;5.78;4.38;;;18.00;99.90;;;;;;5098859;28;20039;-79
2022/08/17 02:28:47;;;;;;;4.90;4.20;;;18.10;99.90;;;;;;5102762;28;20028;-79
2022/08/17 02:31:12;;;;;;;5.22;4.72;;;18.10;99.90;;;;;;5100497;28;20020;-79
2022/08/17 02:33:39;;;;;;;4.57;4.20;;;18.10;99.90;;;;;;5101954;28;20020;-79
2022/08/17 02:36:07;;;;;;;5.32;4.47;;;18.20;99.90;;;;;;5104452;28;20027;-80
2022/08/17 02:38:35;;;;;;;5.18;4.03;;;18.20;99.90;;;;;;5099138;28;20068;-81
2022/08/17 02:41:01;;;;;;;5.35;4.07;;;18.10;99.90;;;;;;5103219;28;20024;-80
2022/08/17 02:43:27;;;;;;;7.60;4.75;;;18.20;99.90;;;;;;5101074;28;20034;-80
2022/08/17 02:45:53;;;;;;;4.70;4.15;;;18.10;99.90;;;;;;5103439;28;20031;-80
2022/08/17 02:48:19;;;;;;;4.32;3.95;;;18.10;99.90;;;;;;5101813;28;20028;-80
2022/08/17 02:50:45;;;;;;;4.47;4.07;;;18.10;99.90;;;;;;5102212;28;20046;-80
2022/08/17 02:53:10;;;;;;;5.28;4.25;;;18.10;99.90;;;;;;5099256;28;20097;-81
2022/08/17 02:55:39;;;;;;;4.63;4.25;;;18.10;99.90;;;;;;5102704;28;20058;-80
2022/08/17 02:58:05;;;;;;;4.93;4.53;;;18.00;99.90;;;;;;5101671;28;20080;-80
2022/08/17 03:00:37;;;;;;;5.07;4.57;;;18.00;99.90;;;;;;5097573;28;20024;-78
2022/08/17 03:03:07;;;;;;;4.93;4.43;;;18.00;99.90;;;;;;5104308;28;20059;-80
2022/08/17 03:05:35;;;;;;;4.65;4.13;;;18.00;99.90;;;;;;5102404;28;20051;-80
2022/08/17 03:08:01;;;;;;;5.47;4.35;;;17.90;99.90;;;;;;5102908;28;20040;-80
2022/08/17 03:10:28;;;;;;;5.22;4.63;;;17.90;99.90;;;;;;5099427;28;20448;-80
2022/08/17 03:12:54;;;;;;;6.72;4.40;;;17.90;99.90;;;;;;5100320;28;20047;-81
2022/08/17 03:15:23;;;;;;;5.72;4.43;;;17.90;99.90;;;;;;5097981;28;20058;-79
2022/08/17 03:17:51;;;;;;;6.53;4.57;;;17.90;99.90;;;;;;5103057;28;20452;-79
2022/08/17 03:20:18;;;;;;;5.43;4.75;;;17.90;99.90;;;;;;5102545;28;20601;-79
2022/08/17 03:22:47;;;;;;;5.78;5.03;;;17.90;99.90;;;;;;5102089;28;20154;-80
2022/08/17 03:25:15;;;;;;;5.45;4.57;;;18.00;99.90;;;;;;5102746;28;20062;-80
2022/08/17 03:27:41;;;;;;;4.35;4.05;;;18.00;99.90;;;;;;5094672;28;20032;-80
2022/08/17 03:30:07;;;;;;;4.68;4.28;;;18.00;99.90;;;;;;5097423;28;20361;-80
2022/08/17 03:32:42;;;;;;;5.38;4.82;;;18.00;99.90;;;;;;5108002;28;20038;-80
2022/08/17 03:35:10;;;;;;;6.90;4.20;;;18.00;99.90;;;;;;5093306;28;20062;-79
2022/08/17 03:37:35;;;;;;;6.72;4.18;;;18.00;99.90;;;;;;5092184;28;20386;-79
2022/08/17 03:40:03;;;;;;;6.97;4.40;;;18.00;99.90;;;;;;5093422;28;20039;-80
2022/08/17 03:42:29;;;;;;;4.63;4.22;;;18.00;99.90;;;;;;5093347;28;20024;-79
2022/08/17 03:44:56;;;;;;;5.57;4.88;;;18.00;99.90;;;;;;5092983;28;20503;-81
2022/08/17 03:58:22;;;;;;;5.47;4.88;;;18.00;99.90;;;;;;5096368;28;20058;-80
2022/08/17 04:00:49;;;;;;;7.20;4.40;;;18.00;99.90;;;;;;5095232;28;20036;-79
2022/08/17 04:03:16;;;;;;;5.68;4.47;;;18.10;99.90;;;;;;5090599;28;20683;-78
2022/08/17 04:05:41;;;;;;;4.85;4.35;;;18.10;99.90;;;;;;5097086;28;20031;-79
2022/08/17 04:08:08;;;;;;;6.38;4.85;;;18.10;99.90;;;;;;5101187;28;20121;-79
2022/08/17 04:10:35;;;;;;;5.32;4.57;;;18.00;99.90;;;;;;5092282;28;20036;-79
2022/08/17 04:13:01;;;;;;;8.57;4.47;;;18.00;99.90;;;;;;5098445;28;20350;-79
2022/08/17 04:15:27;;;;;;;5.43;4.88;;;18.00;99.90;;;;;;5105309;28;20027;-79
2022/08/17 04:17:54;;;;;;;8.02;5.28;;;17.90;99.90;;;;;;5099901;28;20066;-81
2022/08/17 04:20:22;;;;;;;7.22;4.70;;;17.90;99.90;;;;;;5098041;28;20024;-81
2022/08/17 04:22:56;;;;;;;6.80;4.90;;;17.90;99.90;;;;;;5097731;28;20024;-80
2022/08/17 04:25:21;;;;;;;5.85;5.05;;;17.80;99.90;;;;;;5095645;28;20032;-79
2022/08/17 04:27:47;;;;;;;9.45;5.53;;;17.80;99.90;;;;;;5099708;28;20032;-79
2022/08/17 04:30:13;;;;;;;6.10;5.50;;;17.80;99.90;;;;;;5111088;28;20035;-79
2022/08/17 04:33:04;;;;;;;6.82;6.00;;;17.70;99.90;;;;;;5105806;28;20030;-81
2022/08/17 04:35:32;;;;;;;6.68;5.78;;;17.80;99.90;;;;;;5096281;28;20055;-79
2022/08/17 04:37:58;;;;;;;7.20;6.45;;;17.80;99.90;;;;;;5096674;28;20101;-79
2022/08/17 04:43:14;;;;;;;8.75;5.90;;;17.70;99.90;;;;;;5103775;28;20129;-79
2022/08/17 04:45:42;;;;;;;11.70;6.60;;;17.70;99.90;;;;;;5120158;27;20108;-80
2022/08/17 04:48:07;;;;;;;8.20;5.57;;;17.70;99.90;;;;;;5104481;28;20020;-84
2022/08/17 04:50:35;;;;;;;11.88;6.32;;;17.70;99.90;;;;;;5103568;28;20039;-79
2022/08/17 04:53:01;;;;;;;7.30;5.93;;;17.70;99.90;;;;;;5105026;27;20028;-80
2022/08/17 04:55:27;;;;;;;8.45;5.72;;;17.70;99.90;;;;;;5107316;28;20027;-80
2022/08/17 04:57:52;;;;;;;9.98;5.82;;;17.70;99.90;;;;;;5101374;28;20052;-79
2022/08/17 05:00:19;;;;;;;6.40;5.20;;;17.70;99.90;;;;;;5106365;28;20027;-81
2022/08/17 05:02:49;;;;;;;8.43;5.40;;;17.80;99.90;;;;;;5102511;28;20024;-77
2022/08/17 05:05:29;;;;;;;5.78;5.03;;;17.80;99.90;;;;;;5096599;28;20039;-79
2022/08/17 05:07:57;;;;;;;7.68;4.95;;;17.90;99.90;;;;;;5095683;28;20038;-82
2022/08/17 05:10:25;;;;;;;5.78;4.07;;;18.00;99.90;;;;;;5097162;28;20077;-80
2022/08/17 05:13:11;;;;;;;6.38;5.00;;;18.00;99.90;;;;;;5114510;28;20027;-80
2022/08/17 05:15:39;;;;;;;8.05;5.00;;;18.20;99.90;;;;;;5109322;28;20372;-81
2022/08/17 05:18:06;;;;;;;5.95;4.70;;;18.30;99.90;;;;;;5099244;28;20054;-81
2022/08/17 05:20:33;;;;;;;8.15;5.20;;;18.30;99.90;;;;;;5094644;28;20035;-80
2022/08/17 05:23:03;;;;;;;5.85;5.28;;;18.50;99.90;;;;;;5095195;28;20035;-80
2022/08/17 05:25:32;;;;;;;7.47;6.35;;;18.60;99.90;;;;;;5095666;28;20069;-81
2022/08/17 05:27:58;;;;;;;9.63;6.65;;;18.80;99.90;;;;;;5093982;28;20031;-81
2022/08/17 05:30:24;;;;;;;10.02;7.18;;;18.90;99.90;;;;;;5092740;28;20040;-72
2022/08/17 05:32:51;;;;;;;6.55;5.93;;;18.90;99.90;;;;;;5089696;28;20020;-73
2022/08/17 05:35:16;;;;;;;11.35;6.70;;;19.00;99.90;;;;;;5103927;28;20489;-73
2022/08/17 05:37:42;;;;;;;8.55;7.07;;;19.00;99.90;;;;;;5097763;28;20028;-72
2022/08/17 05:40:09;;;;;;;15.38;8.05;;;19.10;99.90;;;;;;5091939;28;20032;-73
2022/08/17 05:42:35;;;;;;;11.98;6.40;;;19.20;99.90;;;;;;5093639;28;20456;-73
2022/08/17 05:45:00;;;;;;;13.13;8.07;;;19.30;99.90;;;;;;5092234;28;20062;-76
2022/08/17 05:47:27;;;;;;;11.85;7.22;;;19.40;99.90;;;;;;5093197;28;20020;-73
2022/08/17 05:49:53;;;;;;;13.63;7.63;;;19.40;99.90;;;;;;5096320;28;20407;-72
2022/08/17 05:52:44;;;;;;;12.43;6.93;;;19.50;99.90;;;;;;5099423;28;20087;-73
2022/08/17 05:55:44;;;;;;;9.80;7.00;;;19.60;99.90;;;;;;5092936;28;20028;-77
2022/08/17 05:58:25;;;;;;;12.63;7.20;;;19.70;99.90;;;;;;5094333;28;20058;-77
2022/08/17 06:01:04;;;;;;;11.77;7.97;;;19.90;99.90;;;;;;5096902;28;20459;-78
2022/08/17 06:03:59;;;;;;;10.10;6.13;;;20.00;99.90;;;;;;5095423;28;20035;-77
2022/08/17 06:06:41;;;;;;;9.18;5.70;;;20.20;99.90;;;;;;5095381;28;20818;-77
2022/08/17 06:09:37;;;;;;;7.20;5.85;;;20.40;99.90;;;;;;5099396;28;20056;-79
2022/08/17 06:12:20;;;;;;;6.82;5.22;;;20.60;99.90;;;;;;5093325;28;20075;-83
2022/08/17 06:15:01;;;;;;;11.48;5.93;;;20.70;99.90;;;;;;5093719;28;20020;-76
2022/08/17 06:17:30;;;;;;;13.63;7.38;;;20.80;99.90;;;;;;5112271;28;20728;-77
2022/08/17 06:20:06;;;;;;;10.13;7.00;;;20.90;99.90;;;;;;5118420;28;20032;-76
2022/08/17 06:22:35;;;;;;;10.90;6.88;;;21.00;99.90;;;;;;5097704;28;20028;-76
2022/08/17 06:25:14;;;;;;;8.98;6.60;;;21.10;99.90;;;;;;5103648;28;20082;-82
2022/08/17 06:27:50;;;;;;;13.65;7.05;;;21.20;99.90;;;;;;5100894;28;20112;-76
2022/08/17 06:30:24;;;;;;;10.88;7.07;;;21.20;99.90;;;;;;5100517;28;20115;-79
2022/08/17 06:32:53;;;;;;;10.88;6.95;;;21.30;99.90;;;;;;5099845;28;20051;-77
2022/08/17 06:35:43;;;;;;;14.70;6.45;;;21.40;99.90;;;;;;5095657;28;20036;-76
2022/08/17 06:38:22;;;;;;;17.95;7.15;;;21.40;99.90;;;;;;5096394;28;20039;-77
2022/08/17 06:41:21;;;;;;;11.25;6.32;;;21.50;99.90;;;;;;5098167;28;20051;-77
2022/08/17 06:44:12;;;;;;;11.20;6.40;;;21.50;99.90;;;;;;5035255;28;20036;-77
2022/08/17 06:46:47;;;;;;;16.98;7.38;;;21.70;99.90;;;;;;5093104;28;20047;-77
2022/08/17 06:49:27;;;;;;;9.57;6.03;;;21.70;99.90;;;;;;5093991;28;20270;-75
2022/08/17 06:51:57;;;;;;;12.93;6.82;;;21.90;99.90;;;;;;5104133;28;20027;-76
2022/08/17 06:54:37;;;;;;;8.93;6.65;;;22.20;99.90;;;;;;5098691;28;20620;-77
2022/08/17 06:57:31;;;;;;;8.93;6.13;;;22.50;99.90;;;;;;5094012;28;20031;-80
2022/08/17 07:00:18;;;;;;;11.93;6.45;;;22.80;99.30;;;;;;5096722;28;20075;-77
2022/08/17 07:03:05;;;;;;;10.77;6.00;;;23.00;98.60;;;;;;5101278;28;20366;-76
2022/08/17 07:05:53;;;;;;;6.80;5.75;;;23.20;97.90;;;;;;5106222;28;20023;-77
2022/08/17 07:08:37;;;;;;;8.27;5.85;;;23.30;97.70;;;;;;5100823;28;20019;-77
2022/08/17 07:11:09;;;;;;;7.82;5.60;;;23.50;97.40;;;;;;5092042;28;20024;-81
2022/08/17 07:14:13;;;;;;;13.45;5.85;;;23.70;97.10;;;;;;5100403;28;20529;-76
2022/08/17 07:16:45;;;;;;;8.00;6.25;;;23.90;96.40;;;;;;5094496;28;20127;-76
2022/08/17 07:19:15;;;;;;;8.85;5.88;;;24.20;96.00;;;;;;5099147;28;20047;-77
2022/08/17 07:22:00;;;;;;;7.82;5.32;;;24.30;95.30;;;;;;5099909;28;20024;-79
2022/08/17 07:24:43;;;;;;;9.57;6.20;;;24.30;95.20;;;;;;5102880;28;20053;-79
2022/08/17 07:27:13;;;;;;;9.82;5.45;;;24.40;94.30;;;;;;5096207;28;20024;-77
2022/08/17 07:29:46;;;;;;;7.00;5.25;;;24.50;94.40;;;;;;5104500;28;20051;-81
2022/08/17 07:32:17;;;;;;;5.78;5.00;;;24.70;93.30;;;;;;5099012;28;20138;-77
2022/08/17 07:35:01;;;;;;;6.07;4.75;;;24.90;92.90;;;;;;5100279;28;20028;-77
2022/08/17 07:37:27;;;;;;;7.55;5.07;;;25.00;91.90;;;;;;5104456;28;20036;-78
2022/08/17 07:39:54;;;;;;;8.05;5.35;;;25.20;91.40;;;;;;5095223;28;20449;-77
2022/08/17 07:42:20;;;;;;;7.45;5.00;;;25.30;91.10;;;;;;5101657;28;20412;-78
2022/08/17 07:44:52;;;;;;;8.45;4.75;;;25.40;90.60;;;;;;5097552;28;20368;-78
2022/08/17 07:56:51;;;;;;;10.95;5.88;;;25.30;90.20;;;;;;5212040;23;20524;-75
2022/08/17 07:59:24;;;;;;;7.10;5.30;;;25.30;90.20;;;;;;4979184;28;20117;-73
2022/08/17 08:01:56;;;;;;;7.28;5.28;;;25.20;90.30;;;;;;4982099;28;20131;-72
2022/08/17 08:04:45;;;;;;;7.80;4.90;;;25.10;90.30;;;;;;4975518;28;20027;-72
2022/08/17 08:07:15;;;;;;;6.30;5.05;;;25.10;90.60;;;;;;4966170;28;20429;-69
2022/08/17 08:10:03;;;;;;;9.68;5.50;;;25.10;90.50;;;;;;4982643;28;20548;-71
2022/08/17 08:12:39;;;;;;;8.00;5.10;;;25.20;90.10;;;;;;4985348;28;20038;-70
2022/08/17 08:15:21;;;;;;;11.45;5.45;;;25.40;90.00;;;;;;4989607;28;20471;-70
2022/08/17 08:18:02;;;;;;;8.50;4.75;;;25.60;89.30;;;;;;4987293;28;20043;-69
2022/08/17 08:20:52;;;;;;;7.65;5.07;;;25.60;89.30;;;;;;4989094;28;20050;-68
2022/08/17 08:23:53;;;;;;;6.63;5.10;;;25.60;89.50;;;;;;4988076;28;20034;-68
2022/08/17 08:26:27;;;;;;;10.80;5.60;;;25.60;89.40;;;;;;4952317;28;20038;-70
2022/08/17 08:29:07;;;;;;;5.57;4.93;;;25.70;89.40;;;;;;4987407;28;20031;-70
2022/08/17 08:31:59;;;;;;;6.17;4.70;;;25.80;88.00;;;;;;4984989;28;20034;-72
2022/08/17 08:34:44;;;;;;;5.28;4.57;;;25.80;88.20;;;;;;4989570;28;20034;-68
2022/08/17 08:37:29;;;;;;;7.68;5.13;;;25.80;88.20;;;;;;4980062;28;20418;-71
2022/08/17 08:40:09;;;;;;;7.63;5.70;;;25.90;87.20;;;;;;4990164;28;20042;-71
2022/08/17 08:43:01;;;;;;;6.35;5.22;;;25.90;86.40;;;;;;4978283;28;20027;-69
2022/08/17 08:45:51;;;;;;;6.30;4.80;;;25.90;86.70;;;;;;4985313;28;20062;-69
2022/08/17 08:48:32;;;;;;;6.97;4.70;;;25.70;86.70;;;;;;4980361;28;20133;-69
2022/08/17 08:51:27;;;;;;;8.00;4.63;;;25.70;87.40;;;;;;4990351;28;20467;-69
2022/08/17 08:54:04;;;;;;;10.00;4.40;;;25.60;87.60;;;;;;4983677;28;20022;-69
2022/08/17 08:56:41;;;;;;;10.00;5.40;;;25.50;87.80;;;;;;4982527;28;20038;-71
2022/08/17 08:59:34;;;;;;;6.15;4.75;;;25.40;88.00;;;;;;4986929;28;20050;-69
2022/08/17 09:02:08;;;;;;;7.22;4.70;;;25.30;88.20;;;;;;4981378;28;20096;-69
2022/08/17 09:05:10;;;;;;;6.43;4.57;;;25.40;88.10;;;;;;4987301;28;20026;-69
2022/08/17 09:08:05;;;;;;;7.20;4.97;;;25.30;88.00;;;;;;4988614;28;20113;-68
2022/08/17 09:11:01;;;;;;;8.57;4.90;;;25.40;88.00;;;;;;4986785;28;20039;-69
2022/08/17 09:13:44;;;;;;;13.60;5.22;;;25.40;87.90;;;;;;4984334;28;20037;-69
2022/08/17 09:16:31;;;;;;;5.40;4.80;;;25.40;88.20;;;;;;4986852;28;20031;-69
2022/08/17 09:19:07;;;;;;;14.02;5.32;;;25.40;88.20;;;;;;4989882;28;20038;-75
2022/08/17 09:21:44;;;;;;;5.63;4.45;;;25.30;88.50;;;;;;4990429;28;20449;-70
2022/08/17 09:24:27;;;;;;;6.32;5.18;;;25.30;89.20;;;;;;4993526;28;20026;-71
2022/08/17 09:27:17;;;;;;;7.88;4.93;;;25.30;89.60;;;;;;4988561;28;20026;-71
2022/08/17 09:29:49;;;;;;;9.48;5.68;;;25.30;89.80;;;;;;4986225;28;20467;-70
2022/08/17 09:32:36;;;;;;;10.60;5.50;;;25.30;90.10;;;;;;4987206;28;20109;-72
2022/08/17 09:35:14;;;;;;;8.98;5.63;;;25.20;90.20;;;;;;4993060;28;20105;-72
2022/08/17 09:38:16;;;;;;;8.15;5.22;;;25.10;90.50;;;;;;4980992;28;20023;-72
2022/08/17 09:41:10;;;;;;;15.68;5.32;;;25.10;90.50;;;;;;4985341;28;20042;-72
2022/08/17 09:44:01;;;;;;;8.82;5.03;;;25.10;90.80;;;;;;4991410;28;20052;-70
2022/08/17 09:47:03;;;;;;;11.73;5.55;;;25.00;91.20;;;;;;4989834;28;20041;-70
2022/08/17 09:49:44;;;;;;;5.78;4.28;;;24.90;92.30;;;;;;4989932;28;20057;-69
2022/08/17 09:52:18;;;;;;;8.48;5.25;;;24.80;92.80;;;;;;4986806;28;20038;-69
2022/08/17 09:54:45;;;;;;;11.50;5.25;;;24.70;93.40;;;;;;4991488;28;20030;-72
2022/08/17 09:57:14;;;;;;;6.82;4.72;;;24.70;92.80;;;;;;4986779;28;20137;-70
2022/08/17 10:00:14;;;;;;;7.22;4.85;;;24.70;93.00;;;;;;4985046;28;20038;-71
2022/08/17 10:03:16;;;;;;;9.73;4.47;;;24.70;93.50;;;;;;4981618;28;20042;-71
2022/08/17 10:05:59;;;;;;;6.95;4.45;;;24.80;93.10;;;;;;4980332;28;20417;-70
2022/08/17 10:08:54;;;;;;;5.70;4.72;;;24.80;93.10;;;;;;4984367;28;20464;-71
2022/08/17 10:12:14;;;;;;;5.03;4.50;;;24.80;93.20;;;;;;4991012;28;20152;-70
2022/08/17 10:14:28;;;;;;;7.30;5.18;;;24.90;93.50;;;;;;4990234;28;20031;-71
2022/08/17 10:17:15;;;;;;;8.57;4.57;;;25.10;93.80;;;;;;4990834;28;20041;-71
2022/08/17 10:19:45;;;;;;;10.48;5.30;;;25.30;93.40;;;;;;4990952;28;20044;-70
2022/08/17 10:27:52;;;;;;;4.75;4.25;;;25.90;91.20;;;;;;4981186;28;20029;-71
2022/08/17 10:30:22;;;;;;;9.80;4.38;;;26.00;90.80;;;;;;4986737;28;20026;-71
2022/08/17 10:32:58;;;;;;;6.78;4.50;;;26.00;90.40;;;;;;4988902;28;20506;-70
2022/08/17 10:35:33;;;;;;;8.57;4.32;;;26.00;90.40;;;;;;4990347;28;20042;-70
2022/08/17 10:38:18;;;;;;;6.68;4.22;;;26.00;90.00;;;;;;4990883;28;20040;-70
2022/08/17 10:40:52;;;;;;;4.20;3.80;;;26.10;90.00;;;;;;4989678;28;20034;-71
2022/08/17 10:43:24;;;;;;;7.40;4.75;;;26.10;89.90;;;;;;4989294;28;20034;-69
2022/08/17 10:46:06;;;;;;;5.80;4.20;;;26.20;89.30;;;;;;4988699;28;20065;-69
2022/08/17 10:48:35;;;;;;;6.05;4.28;;;26.30;87.30;;;;;;4985774;28;20080;-69
2022/08/17 10:51:36;;;;;;;7.05;4.05;;;26.40;86.80;;;;;;4994228;28;20386;-73
2022/08/17 10:54:22;;;;;;;9.10;4.03;;;26.40;86.90;;;;;;4989013;28;20030;-72
2022/08/17 10:56:51;;;;;;;4.63;4.22;;;26.30;86.80;;;;;;4983898;28;20038;-71
2022/08/17 10:59:35;;;;;;;9.57;4.17;;;26.30;87.20;;;;;;4986910;28;20038;-71
2022/08/17 11:02:16;;;;;;;7.45;4.25;;;26.20;86.70;;;;;;4990086;28;20281;-70
2022/08/17 11:05:06;;;;;;;7.68;4.20;;;26.10;86.40;;;;;;4986977;28;20561;-71
2022/08/17 11:07:51;;;;;;;7.50;3.38;;;26.10;85.30;;;;;;4983874;28;20483;-71
2022/08/17 11:10:34;;;;;;;5.47;4.00;;;26.00;85.30;;;;;;4983076;28;20485;-72
2022/08/17 11:13:08;;;;;;;6.40;4.20;;;25.90;87.60;;;;;;4993436;28;20105;-72
2022/08/17 11:15:53;;;;;;;4.15;3.58;;;25.70;87.40;;;;;;4990431;28;20030;-74
2022/08/17 11:18:52;;;;;;;3.70;3.40;;;25.50;87.30;;;;;;4985512;28;20034;-72
2022/08/17 11:21:52;;;;;;;3.42;3.17;;;25.30;87.70;;;;;;4977761;28;20034;-72
2022/08/17 11:24:19;;;;;;;;;;;25.20;89.10;;;;;;4987176;28;20031;-72
2022/08/17 11:27:07;;;;;;;3.72;3.30;;;25.10;88.90;;;;;;4983751;28;20025;-72
2022/08/17 11:29:51;;;;;;;4.47;3.58;;;25.00;90.20;;;;;;4987925;28;20046;-73
2022/08/17 11:32:42;;;;;;;4.57;3.47;;;24.80;90.40;;;;;;4987185;28;20030;-73
2022/08/17 11:35:20;;;;;;;5.10;3.30;;;24.70;90.70;;;;;;4983554;28;20133;-73
2022/08/17 11:38:07;;;;;;;3.70;3.10;;;24.60;90.80;;;;;;4985096;28;20989;-74
2022/08/17 11:40:52;;;;;;;5.10;3.42;;;24.50;90.90;;;;;;4980031;28;20031;-70
2022/08/17 11:44:02;;;;;;;4.65;3.28;;;24.40;91.00;;;;;;4982659;28;20034;-70
2022/08/17 11:52:41;;;;;;;6.25;4.13;;;24.10;92.40;;;;;;4981304;28;20440;-69
2022/08/17 11:55:12;;;;;;;8.15;4.60;;;24.10;92.10;;;;;;4990374;28;20114;-70
2022/08/17 11:57:41;;;;;;;5.13;3.75;;;24.10;92.50;;;;;;4984291;28;20061;-70
2022/08/17 12:00:44;;;;;;;6.65;3.92;;;24.10;92.50;;;;;;4989664;28;20022;-70
2022/08/17 12:03:42;;;;;;;4.95;4.25;;;24.20;92.10;;;;;;4976272;28;20032;-71
2022/08/17 12:06:26;;;;;;;5.10;3.78;;;24.20;92.00;;;;;;4986571;28;20384;-71
2022/08/17 12:09:16;;;;;;;5.50;4.30;;;24.40;91.70;;;;;;4979347;28;20089;-68
2022/08/17 12:11:45;;;;;;;3.95;3.58;;;24.40;91.40;;;;;;4988801;28;20026;-73
2022/08/17 12:14:16;;;;;;;4.85;3.80;;;24.50;91.30;;;;;;4990164;28;20074;-70
2022/08/17 12:16:43;;;;;;;6.38;4.18;;;24.60;91.20;;;;;;4986269;28;20109;-68
2022/08/17 12:19:19;;;;;;;6.85;3.85;;;24.80;91.00;;;;;;4987144;28;20092;-69
2022/08/17 12:21:53;;;;;;;5.35;4.32;;;25.00;90.70;;;;;;4985424;28;20023;-70
2022/08/17 12:24:27;;;;;;;5.20;3.83;;;25.30;90.40;;;;;;4989537;28;20038;-71
2022/08/17 12:26:58;;;;;;;5.50;3.75;;;25.60;90.20;;;;;;4985326;28;20042;-71
2022/08/17 12:29:24;;;;;;;4.90;4.00;;;25.90;89.10;;;;;;4989530;28;20395;-70
2022/08/17 12:31:53;;;;;;;4.38;3.97;;;26.20;87.20;;;;;;4984385;28;20616;-72
2022/08/17 12:34:20;;;;;;;7.38;3.53;;;26.30;85.70;;;;;;4983594;28;20031;-73
2022/08/17 12:36:49;;;;;;;5.53;3.95;;;26.50;84.60;;;;;;4983399;28;20455;-74
2022/08/17 12:39:21;;;;;;;7.47;3.75;;;26.60;83.80;;;;;;4988950;28;20109;-72
2022/08/17 12:41:50;;;;;;;4.50;4.10;;;26.70;82.30;;;;;;4990376;28;20386;-72
2022/08/17 12:44:22;;;;;;;5.93;4.40;;;26.90;81.60;;;;;;4986377;28;20103;-70
2022/08/17 12:47:09;;;;;;;5.80;4.28;;;26.90;83.00;;;;;;4987962;28;20106;-71
2022/08/17 12:49:43;;;;;;;4.30;3.90;;;26.90;84.00;;;;;;4994402;28;20041;-70
2022/08/17 12:52:18;;;;;;;5.40;4.80;;;26.80;84.10;;;;;;4985732;28;20022;-71
2022/08/17 12:55:05;;;;;;;6.95;4.03;;;26.80;84.00;;;;;;4989775;28;20026;-70
2022/08/17 12:57:41;;;;;;;7.32;4.43;;;26.70;83.70;;;;;;4985663;28;20061;-70
2022/08/17 13:00:07;;;;;;;4.57;3.97;;;26.70;84.20;;;;;;4984883;28;20041;-71
2022/08/17 13:03:02;;;;;;;9.63;3.83;;;26.80;83.80;;;;;;4984351;28;20110;-70
2022/08/17 13:05:29;;;;;;;6.55;4.18;;;26.90;82.90;;;;;;4993960;28;20095;-72
2022/08/17 13:07:57;;;;;;;7.10;3.70;;;27.30;81.30;;;;;;4984830;28;20466;-70
2022/08/17 13:10:30;;;;;;;4.60;3.65;;;27.90;78.60;;;;;;4989121;28;20030;-71
2022/08/17 13:12:56;;;;;;;5.45;3.45;;;28.80;77.50;;;;;;4989533;28;20419;-71
2022/08/17 13:15:55;;;;;;;5.40;3.58;;;29.10;75.70;;;;;;4993232;28;20410;-71
2022/08/17 13:18:37;;;;;;;4.13;3.47;;;29.50;74.20;;;;;;4989053;28;20118;-71
2022/08/17 13:21:05;;;;;;;3.78;3.40;;;29.80;74.10;;;;;;4981637;28;20140;-71
2022/08/17 13:23:34;;;;;;;6.20;3.80;;;30.00;73.10;;;;;;4990484;28;20042;-70
2022/08/17 13:26:13;;;;;;;4.18;3.70;;;30.00;71.30;;;;;;4987070;28;20034;-71
2022/08/17 13:28:47;;;;;;;6.78;3.97;;;30.10;71.20;;;;;;4989035;28;20502;-71
2022/08/17 13:31:33;;;;;;;6.75;3.55;;;30.10;70.90;;;;;;4988152;28;20040;-70
2022/08/17 13:34:14;;;;;;;4.47;3.75;;;30.20;69.90;;;;;;4989257;28;20026;-71
2022/08/17 13:36:40;;;;;;;6.70;3.95;;;30.40;70.10;;;;;;4992222;28;20498;-70
2022/08/17 13:39:21;;;;;;;7.63;4.00;;;30.60;69.70;;;;;;4995100;28;20034;-70
2022/08/17 13:41:49;;;;;;;4.82;3.20;;;30.80;68.40;;;;;;4984963;28;20034;-69
2022/08/17 13:44:36;;;;;;;4.35;3.90;;;30.90;68.20;;;;;;4993788;28;20374;-70
2022/08/17 13:47:17;;;;;;;3.95;3.60;;;31.00;67.20;;;;;;4992769;28;20474;-71
2022/08/17 13:49:44;;;;;;;5.97;4.05;;;30.90;66.30;;;;;;4992980;28;20120;-69
2022/08/17 13:52:31;;;;;;;5.25;3.78;;;31.10;64.90;;;;;;4993182;28;20494;-70
2022/08/17 13:55:01;;;;;;;4.82;3.47;;;31.00;64.60;;;;;;4994651;28;20466;-70
2022/08/17 13:57:27;;;;;;;;;;;31.00;64.90;;;;;;4993577;28;20062;-71
2022/08/17 14:00:10;;;;;;;4.53;4.03;;;30.90;65.10;;;;;;5008898;28;19950;-70